Bouzas — EAPC — position and weather

sailwx.info

Track history (hours):
 
Tides and Currents Weather Stations Pressure Air Temp Water Temp Dewpoint Dewpoint Depression Visibility Wind Speed Wind Dir Waves Ship Positions

Bouzas

Last reported at 2014-Oct-31 03:22 UTC. Time now 2014-Oct-31 13:01 UTC.
Position N 41°14' E 002°13'.

Length 142 m; draft 5.6 m.

Type: Cargo ship. MMSI: 224029000.

Date/timePositionNaut miles runAvg speedWind from/ knotsBaromVisibWave heightAir tempDewpointWater temp
2014-Oct-31 03:22N 41°14' E 002°13'1111.3
2014-Oct-31 02:26N 41°05' E 002°05'1011.4
2014-Oct-31 01:33N 40°56' E 001°59'1211.9
2014-Oct-31 00:33N 40°45' E 001°52'1312.9
2014-Oct-30 23:33N 40°34' E 001°44'1313.2
2014-Oct-30 22:33N 40°22' E 001°35'1313.2
2014-Oct-30 21:33N 40°10' E 001°28'1312.9
2014-Oct-30 20:33N 39°59' E 001°20'1111.2
2014-Oct-30 19:33N 39°49' E 001°13'14813.5
2014-Oct-30 08:33N 37°42' W 000°24'1413.6
2014-Oct-30 07:33N 37°31' W 000°34'1514.0
2014-Oct-30 06:30N 37°21' W 000°48'22614.1
2014-Oct-29 14:28N 35°60' W 005°11'  
2014-Oct-25 16:32N 35°58' W 005°33'20118.0
2014-Oct-25 05:20N 36°54' W 001°32'1519.3
2014-Oct-25 04:33N 37°04' W 001°18'2019.4
2014-Oct-25 03:32N 37°17' W 000°59'1919.9
2014-Oct-25 02:33N 37°29' W 000°40'2019.4
2014-Oct-25 01:33N 37°44' W 000°24'1919.2
2014-Oct-25 00:33N 38°01' W 000°12'2019.8
2014-Oct-24 23:33N 38°17' E 000°02'1919.4
2014-Oct-24 22:33N 38°34' E 000°16'1919.3
2014-Oct-24 21:33N 38°50' E 000°28'8018.8
2014-Oct-24 17:18N 40°00' E 001°18'1619.2
2014-Oct-24 16:28N 40°14' E 001°28'1919.0
2014-Oct-24 15:27N 40°31' E 001°41'2219.2
2014-Oct-24 14:18N 40°51' E 001°54'40 2.5
2014-Oct-23 22:30N 40°15' E 001°31'3 2.5
2014-Oct-23 21:14N 40°12' E 001°29'1414.4
2014-Oct-23 20:14N 39°60' E 001°20'5714.7
2014-Oct-23 16:23N 39°09' E 000°46'1214.9
2014-Oct-23 15:33N 38°58' E 000°38'1515.1
2014-Oct-23 14:32N 38°44' E 000°29'1414.6
2014-Oct-23 13:33N 38°32' E 000°19'3414.6
2014-Oct-23 11:11N 38°03' W 000°04'2414.8
2014-Oct-23 09:32N 37°43' W 000°22'1514.5
2014-Oct-23 08:32N 37°32' W 000°33'1414.0
2014-Oct-23 07:32N 37°22' W 000°46'22613.8
2014-Oct-22 15:05N 35°60' W 005°09'1120.3
2014-Oct-22 14:33N 35°58' W 005°22'10918.2
2014-Oct-22 08:33N 35°05' W 007°19'  
Track history (hours):
 
Tides and Currents Weather Stations Pressure Air Temp Water Temp Dewpoint Dewpoint Depression Visibility Wind Speed Wind Dir Waves Ship Positions

Bouzas

Last reported at 2014-Oct-31 03:22 UTC. Time now 2014-Oct-31 13:01 UTC.
Position N 41°14' E 002°13'.

Length 142 m; draft 5.6 m.

Type: Cargo ship. MMSI: 224029000.

Date/timePositionNaut miles runAvg speedWind from/ knotsBaromVisibWave heightAir tempDewpointWater temp
2014-Oct-31 03:22N 41°14' E 002°13'1111.3
2014-Oct-31 02:26N 41°05' E 002°05'1011.4
2014-Oct-31 01:33N 40°56' E 001°59'1211.9
2014-Oct-31 00:33N 40°45' E 001°52'1312.9
2014-Oct-30 23:33N 40°34' E 001°44'1313.2
2014-Oct-30 22:33N 40°22' E 001°35'1313.2
2014-Oct-30 21:33N 40°10' E 001°28'1312.9
2014-Oct-30 20:33N 39°59' E 001°20'1111.2
2014-Oct-30 19:33N 39°49' E 001°13'14813.5
2014-Oct-30 08:33N 37°42' W 000°24'1413.6
2014-Oct-30 07:33N 37°31' W 000°34'1514.0
2014-Oct-30 06:30N 37°21' W 000°48'22614.1
2014-Oct-29 14:28N 35°60' W 005°11'  
2014-Oct-25 16:32N 35°58' W 005°33'20118.0
2014-Oct-25 05:20N 36°54' W 001°32'1519.3
2014-Oct-25 04:33N 37°04' W 001°18'2019.4
2014-Oct-25 03:32N 37°17' W 000°59'1919.9
2014-Oct-25 02:33N 37°29' W 000°40'2019.4
2014-Oct-25 01:33N 37°44' W 000°24'1919.2
2014-Oct-25 00:33N 38°01' W 000°12'2019.8
2014-Oct-24 23:33N 38°17' E 000°02'1919.4
2014-Oct-24 22:33N 38°34' E 000°16'1919.3
2014-Oct-24 21:33N 38°50' E 000°28'8018.8
2014-Oct-24 17:18N 40°00' E 001°18'1619.2
2014-Oct-24 16:28N 40°14' E 001°28'1919.0
2014-Oct-24 15:27N 40°31' E 001°41'2219.2
2014-Oct-24 14:18N 40°51' E 001°54'40 2.5
2014-Oct-23 22:30N 40°15' E 001°31'3 2.5
2014-Oct-23 21:14N 40°12' E 001°29'1414.4
2014-Oct-23 20:14N 39°60' E 001°20'5714.7
2014-Oct-23 16:23N 39°09' E 000°46'1214.9
2014-Oct-23 15:33N 38°58' E 000°38'1515.1
2014-Oct-23 14:32N 38°44' E 000°29'1414.6
2014-Oct-23 13:33N 38°32' E 000°19'3414.6
2014-Oct-23 11:11N 38°03' W 000°04'2414.8
2014-Oct-23 09:32N 37°43' W 000°22'1514.5
2014-Oct-23 08:32N 37°32' W 000°33'1414.0
2014-Oct-23 07:32N 37°22' W 000°46'22613.8
2014-Oct-22 15:05N 35°60' W 005°09'1120.3
2014-Oct-22 14:33N 35°58' W 005°22'10918.2
2014-Oct-22 08:33N 35°05' W 007°19'  

Dump ship's entire track history